createdAt,value
2023-09-01T00:01:06.554Z,99031.47
2023-09-01T00:03:33.235Z,99031.69
2023-09-01T00:06:03.106Z,99033.50
2023-09-01T00:08:30.716Z,99030.50
2023-09-01T00:10:57.268Z,99032.69
2023-09-01T00:13:24.944Z,99035.22
2023-09-01T00:15:51.383Z,99034.88
2023-09-01T00:18:18.014Z,99028.09
2023-09-01T00:20:44.448Z,99026.28
2023-09-01T00:23:10.984Z,99018.53
2023-09-01T00:25:37.431Z,99021.41
2023-09-01T00:28:04.281Z,99011.59
2023-09-01T00:30:30.859Z,99020.72
2023-09-01T00:32:58.150Z,99015.84
2023-09-01T00:35:24.671Z,99017.88
2023-09-01T00:37:52.602Z,99010.59
2023-09-01T00:40:19.233Z,99019.69
2023-09-01T00:42:45.846Z,99019.69
2023-09-01T00:45:12.318Z,99018.88
2023-09-01T00:47:38.986Z,99026.78
2023-09-01T00:50:09.019Z,99039.78
2023-09-01T00:52:36.781Z,99032.84
2023-09-01T00:55:04.388Z,99026.78
2023-09-01T00:57:31.166Z,99032.34
2023-09-01T00:59:58.158Z,99022.72
2023-09-01T01:02:26.202Z,99015.28
2023-09-01T01:04:54.935Z,99013.63
2023-09-01T01:07:37.769Z,99003.69
2023-09-01T01:10:07.548Z,99009.91
2023-09-01T01:12:41.166Z,99010.44
2023-09-01T01:15:10.375Z,99010.91
2023-09-01T01:17:41.624Z,99004.13
2023-09-01T01:20:31.390Z,99002.81
2023-09-01T01:23:08.152Z,99007.19
2023-09-01T01:25:34.894Z,99008.06
2023-09-01T01:28:08.944Z,99009.53
2023-09-01T01:30:37.418Z,99000.78
2023-09-01T01:33:04.751Z,99001.78
2023-09-01T01:36:10.611Z,99003.81
2023-09-01T01:38:41.106Z,99004.31
2023-09-01T01:41:15.990Z,99005.69
2023-09-01T01:43:43.999Z,99003.16
2023-09-01T01:46:10.474Z,98999.97
2023-09-01T01:48:40.870Z,99008.06
2023-09-01T01:51:07.505Z,99006.00
2023-09-01T01:53:35.889Z,99008.88
2023-09-01T01:56:58.741Z,99001.28
2023-09-01T01:59:25.394Z,99004.31
2023-09-01T02:01:51.911Z,99001.78
2023-09-01T02:04:18.509Z,99011.59
2023-09-01T02:06:44.941Z,99007.84
2023-09-01T02:09:11.530Z,98991.88
2023-09-01T02:11:38.136Z,98997.91
2023-09-01T02:14:08.349Z,98996.03
2023-09-01T02:16:34.794Z,98998.91
2023-09-01T02:19:01.363Z,98992.34
2023-09-01T02:21:27.894Z,98988.63
2023-09-01T02:23:54.990Z,98990.31
2023-09-01T02:27:17.599Z,98984.91
2023-09-01T02:30:40.343Z,98981.56
2023-09-01T02:33:07.424Z,98985.25
2023-09-01T02:35:35.017Z,98994.88
2023-09-01T02:38:01.543Z,98992.69
2023-09-01T02:40:28.197Z,98992.53
2023-09-01T02:42:54.731Z,98995.72
2023-09-01T02:45:21.443Z,98993.34
2023-09-01T02:47:47.890Z,98999.72
2023-09-01T02:50:14.771Z,99006.31
2023-09-01T02:52:41.795Z,99003.28
2023-09-01T02:55:09.509Z,99013.06
2023-09-01T02:57:36.802Z,99004.97
2023-09-01T03:00:15.636Z,99009.69
2023-09-01T03:02:43.848Z,99012.72
2023-09-01T03:05:13.062Z,99008.69
2023-09-01T03:07:40.389Z,99003.97
2023-09-01T03:10:09.184Z,99007.69
2023-09-01T03:12:38.367Z,99010.22
2023-09-01T03:15:10.235Z,99004.31
2023-09-01T03:17:36.877Z,98993.69
2023-09-01T03:20:05.547Z,98990.31
2023-09-01T03:22:32.430Z,98988.31
2023-09-01T03:25:01.082Z,98988.44
2023-09-01T03:27:28.069Z,98986.28
2023-09-01T03:29:55.950Z,98971.94
2023-09-01T03:32:22.989Z,98971.78
2023-09-01T03:34:49.708Z,98970.28
2023-09-01T03:37:16.397Z,98958.63
2023-09-01T03:39:44.072Z,98968.41
2023-09-01T03:42:10.676Z,98959.50
2023-09-01T03:44:38.336Z,98965.38
2023-09-01T03:47:05.246Z,98972.94
2023-09-01T03:49:33.996Z,98964.69
2023-09-01T03:52:01.108Z,98977.16
2023-09-01T03:54:27.822Z,98977.34
2023-09-01T03:56:54.416Z,98976.50
2023-09-01T03:59:21.123Z,98982.53
2023-09-01T04:01:48.487Z,98983.03
2023-09-01T04:04:15.599Z,98981.50
2023-09-01T04:06:42.335Z,98983.72
2023-09-01T04:09:12.133Z,98986.97
2023-09-01T04:11:38.944Z,98983.41
2023-09-01T04:14:05.546Z,98980.53
2023-09-01T04:16:32.201Z,98985.75
2023-09-01T04:18:58.753Z,98987.13
2023-09-01T04:21:25.498Z,98999.75
2023-09-01T04:23:51.978Z,98991.81
2023-09-01T04:26:19.606Z,98997.75
2023-09-01T04:28:46.018Z,98990.81
2023-09-01T04:31:29.341Z,98988.78
2023-09-01T04:33:58.624Z,98984.59
2023-09-01T04:36:37.145Z,98988.59
2023-09-01T04:39:13.657Z,98989.13
2023-09-01T04:41:41.399Z,98982.50
2023-09-01T04:44:07.956Z,98999.72
2023-09-01T04:46:34.596Z,99000.41
2023-09-01T04:49:01.053Z,98998.00
2023-09-01T04:51:27.516Z,98992.94
2023-09-01T04:53:53.957Z,98999.34
2023-09-01T04:56:20.458Z,98993.63
2023-09-01T04:58:46.903Z,99003.56
2023-09-01T05:01:14.435Z,98999.69
2023-09-01T05:03:41.097Z,98998.78
2023-09-01T05:06:08.647Z,98987.16
2023-09-01T05:08:35.180Z,98985.13
2023-09-01T05:11:02.785Z,98986.16
2023-09-01T05:13:29.400Z,98975.16
2023-09-01T05:15:56.247Z,98967.91
2023-09-01T05:18:24.976Z,98969.56
2023-09-01T05:20:51.383Z,98981.00
2023-09-01T05:23:18.181Z,98975.88
2023-09-01T05:25:44.683Z,98988.31
2023-09-01T05:28:11.478Z,98986.94
2023-09-01T05:30:39.104Z,98994.81
2023-09-01T05:33:05.809Z,98992.97
2023-09-01T05:35:32.363Z,98995.03
2023-09-01T05:37:58.998Z,98994.22
2023-09-01T05:40:25.481Z,98990.94
2023-09-01T05:42:52.070Z,98998.56
2023-09-01T05:45:24.820Z,98981.88
2023-09-01T05:47:51.304Z,98988.59
2023-09-01T05:50:19.697Z,98996.00
2023-09-01T05:52:46.109Z,98991.22
2023-09-01T05:55:14.678Z,98988.53
2023-09-01T05:57:42.133Z,98986.31
2023-09-01T06:00:09.213Z,98995.94
2023-09-01T06:02:35.659Z,98989.06
2023-09-01T06:05:02.236Z,98993.88
2023-09-01T06:07:28.696Z,98995.75
2023-09-01T06:09:55.569Z,98993.06
2023-09-01T06:12:23.406Z,99002.88
2023-09-01T06:14:49.866Z,98985.34
2023-09-01T06:17:17.374Z,98988.34
2023-09-01T06:19:43.826Z,98973.09
2023-09-01T06:22:10.363Z,98975.59
2023-09-01T06:24:36.806Z,98974.22
2023-09-01T06:27:04.701Z,98979.16
2023-09-01T06:29:31.136Z,98978.66
2023-09-01T06:31:57.745Z,98979.44
2023-09-01T06:34:24.240Z,98983.66
2023-09-01T06:36:50.769Z,98981.00
2023-09-01T06:39:19.464Z,98980.00
2023-09-01T06:41:47.462Z,98978.19
2023-09-01T06:44:13.972Z,98979.91
2023-09-01T06:46:40.506Z,98982.44
2023-09-01T06:49:07.000Z,98986.44
2023-09-01T06:51:33.434Z,98990.75
2023-09-01T06:54:00.076Z,98984.69
2023-09-01T06:56:26.647Z,98987.91
2023-09-01T06:58:53.211Z,98992.00
2023-09-01T07:01:19.743Z,99001.66
2023-09-01T07:03:46.361Z,99002.75
2023-09-01T07:06:12.816Z,99013.75
2023-09-01T07:08:39.447Z,99014.97
2023-09-01T07:11:10.373Z,99011.91
2023-09-01T07:13:37.058Z,99014.22
2023-09-01T07:16:04.661Z,99012.41
2023-09-01T07:18:31.127Z,99020.72
2023-09-01T07:20:59.514Z,99008.78
2023-09-01T07:23:26.439Z,99011.19
2023-09-01T07:25:54.581Z,99016.47
2023-09-01T07:28:21.671Z,99018.72
2023-09-01T07:30:49.640Z,99023.59
2023-09-01T07:33:17.033Z,99022.63
2023-09-01T07:35:48.150Z,99018.53
2023-09-01T07:38:15.659Z,99030.94
2023-09-01T07:40:43.450Z,99022.94
2023-09-01T07:43:10.041Z,99020.34
2023-09-01T07:45:37.318Z,99026.69
2023-09-01T07:48:20.654Z,99027.56
2023-09-01T07:50:49.807Z,99029.53
2023-09-01T07:53:16.398Z,99036.91
2023-09-01T07:55:43.015Z,99045.31
2023-09-01T07:58:09.660Z,99056.97
2023-09-01T08:00:38.653Z,99038.56
2023-09-01T08:03:07.007Z,99031.75
2023-09-01T08:05:33.911Z,99039.03
2023-09-01T08:08:01.555Z,99037.81
2023-09-01T08:10:28.136Z,99042.94
2023-09-01T08:12:54.622Z,99051.22
2023-09-01T08:15:21.248Z,99050.03
2023-09-01T08:17:50.852Z,99052.44
2023-09-01T08:20:20.330Z,99055.44
2023-09-01T08:22:46.721Z,99054.31
2023-09-01T08:25:14.758Z,99063.09
2023-09-01T08:27:41.269Z,99053.09
2023-09-01T08:30:08.905Z,99058.50
2023-09-01T08:32:35.541Z,99054.31
2023-09-01T08:35:05.269Z,99046.69
2023-09-01T08:37:31.898Z,99059.44
2023-09-01T08:39:59.576Z,99059.47
2023-09-01T08:42:28.167Z,99059.06
2023-09-01T08:44:58.601Z,99053.53
2023-09-01T08:47:32.607Z,99061.69
2023-09-01T08:50:00.073Z,99053.28
2023-09-01T08:52:27.782Z,99052.78
2023-09-01T08:54:54.763Z,99054.56
2023-09-01T08:57:22.893Z,99051.34
2023-09-01T08:59:49.337Z,99059.38
2023-09-01T09:02:15.969Z,99057.59
2023-09-01T09:04:43.169Z,99051.34
2023-09-01T09:07:15.439Z,99052.94
2023-09-01T09:09:50.996Z,99048.53
2023-09-01T09:12:19.363Z,99046.00
2023-09-01T09:14:58.594Z,99037.16
2023-09-01T09:17:41.245Z,99034.81
2023-09-01T09:20:08.391Z,99045.28
2023-09-01T09:22:52.299Z,99044.34
2023-09-01T09:25:33.091Z,99038.16
2023-09-01T09:28:02.386Z,99034.16
2023-09-01T09:30:29.144Z,99036.75
2023-09-01T09:33:08.835Z,99035.34
2023-09-01T09:35:36.150Z,99037.66
2023-09-01T09:38:04.297Z,99034.69
2023-09-01T09:40:30.797Z,99033.78
2023-09-01T09:43:02.105Z,99038.81
2023-09-01T09:45:33.863Z,99025.94
2023-09-01T09:48:06.724Z,99033.63
2023-09-01T09:50:35.347Z,99030.50
2023-09-01T09:53:04.635Z,99028.66
2023-09-01T09:55:55.019Z,99034.13
2023-09-01T09:58:40.386Z,99025.81
2023-09-01T10:01:23.152Z,99037.59
2023-09-01T10:03:51.122Z,99030.31
2023-09-01T10:06:18.655Z,99039.22
2023-09-01T10:08:46.506Z,99045.97
2023-09-01T10:11:17.839Z,99046.50
2023-09-01T10:13:48.678Z,99038.19
2023-09-01T10:16:15.713Z,99042.91
2023-09-01T10:18:45.768Z,99040.16
2023-09-01T10:21:14.802Z,99043.06
2023-09-01T10:23:42.321Z,99032.63
2023-09-01T10:26:29.831Z,99043.66
2023-09-01T10:29:06.291Z,99047.19
2023-09-01T10:31:34.591Z,99048.44
2023-09-01T10:34:15.067Z,99039.72
2023-09-01T10:36:45.901Z,99053.06
2023-09-01T10:39:19.999Z,99055.22
2023-09-01T10:41:51.120Z,99056.50
2023-09-01T10:44:17.946Z,99052.50
2023-09-01T10:46:44.819Z,99049.47
2023-09-01T10:49:13.259Z,99057.22
2023-09-01T10:51:41.327Z,99054.91
2023-09-01T10:54:17.314Z,99054.13
2023-09-01T10:56:58.264Z,99049.59
2023-09-01T10:59:38.523Z,99054.16
2023-09-01T11:02:23.740Z,99048.97
2023-09-01T11:04:50.435Z,99044.22
2023-09-01T11:07:17.394Z,99054.09
2023-09-01T11:09:49.532Z,99054.03
2023-09-01T11:12:16.396Z,99059.84
2023-09-01T11:14:57.862Z,99061.75
2023-09-01T11:17:35.204Z,99062.97
2023-09-01T11:20:01.867Z,99059.47
2023-09-01T11:22:28.740Z,99077.44
2023-09-01T11:24:55.251Z,99080.91
2023-09-01T11:27:21.961Z,99067.88
2023-09-01T11:29:51.654Z,99077.63
2023-09-01T11:32:28.712Z,99080.19
2023-09-01T11:34:55.477Z,99079.81
2023-09-01T11:37:42.600Z,99077.56
2023-09-01T11:40:13.896Z,99082.34
2023-09-01T11:42:44.517Z,99087.38
2023-09-01T11:45:12.001Z,99084.25
2023-09-01T11:47:38.931Z,99085.38
2023-09-01T11:50:06.280Z,99087.59
2023-09-01T11:52:50.041Z,99082.03
2023-09-01T11:55:33.597Z,99075.16
2023-09-01T11:58:00.334Z,99079.63
2023-09-01T12:00:35.546Z,99084.47
2023-09-01T12:03:05.150Z,99082.56
2023-09-01T12:05:36.872Z,99088.72
2023-09-01T12:08:05.190Z,99090.41
2023-09-01T12:10:32.389Z,99087.09
2023-09-01T12:13:02.666Z,99094.00
2023-09-01T12:15:29.387Z,99084.03
2023-09-01T12:17:56.100Z,99088.13
2023-09-01T12:20:23.073Z,99080.69
2023-09-01T12:22:51.748Z,99081.59
2023-09-01T12:25:18.878Z,99080.56
2023-09-01T12:27:45.410Z,99068.22
2023-09-01T12:30:12.291Z,99062.97
2023-09-01T12:32:38.946Z,99063.53
2023-09-01T12:35:05.902Z,99063.16
2023-09-01T12:37:32.537Z,99061.50
2023-09-01T12:39:59.064Z,99062.19
2023-09-01T12:42:26.378Z,99071.84
2023-09-01T12:44:52.835Z,99063.28
2023-09-01T12:47:19.517Z,99059.53
2023-09-01T12:49:50.051Z,99056.19
2023-09-01T12:52:18.121Z,99057.88
2023-09-01T12:54:45.038Z,99050.75
2023-09-01T12:57:11.444Z,99046.59
2023-09-01T12:59:38.118Z,99043.03
2023-09-01T13:02:04.775Z,99038.00
2023-09-01T13:04:33.222Z,99033.16
2023-09-01T13:06:59.892Z,99033.19
2023-09-01T13:09:26.461Z,99045.75
2023-09-01T13:11:52.888Z,99043.66
2023-09-01T13:14:19.390Z,99055.59
2023-09-01T13:16:45.792Z,99055.81
2023-09-01T13:19:12.365Z,99057.66
2023-09-01T13:21:38.796Z,99058.31
2023-09-01T13:24:05.683Z,99056.19
2023-09-01T13:26:32.103Z,99051.97
2023-09-01T13:28:59.960Z,99044.25
2023-09-01T13:31:26.530Z,99044.25
2023-09-01T13:33:53.116Z,99028.34
2023-09-01T13:36:19.744Z,99037.16
2023-09-01T13:38:46.897Z,99033.16
2023-09-01T13:41:13.317Z,99034.03
2023-09-01T13:43:40.508Z,99040.09
2023-09-01T13:46:26.907Z,99038.22
2023-09-01T13:48:57.982Z,99033.97
2023-09-01T13:51:28.961Z,99019.72
2023-09-01T13:53:56.982Z,99014.66
2023-09-01T13:56:24.123Z,99021.41
2023-09-01T13:58:50.684Z,99008.59
2023-09-01T14:01:17.653Z,99003.22
2023-09-01T14:03:47.103Z,99003.44
2023-09-01T14:06:14.553Z,99001.88
2023-09-01T14:08:41.020Z,99001.94
2023-09-01T14:11:09.492Z,98996.81
2023-09-01T14:13:35.985Z,98984.81
2023-09-01T14:16:02.620Z,98982.56
2023-09-01T14:18:29.334Z,98995.34
2023-09-01T14:20:57.396Z,98995.19
2023-09-01T14:23:25.471Z,98991.66
2023-09-01T14:25:53.033Z,98996.03
2023-09-01T14:28:20.105Z,98993.59
2023-09-01T14:30:48.233Z,98996.97
2023-09-01T14:33:18.852Z,99007.91
2023-09-01T14:35:51.272Z,99006.69
2023-09-01T14:38:19.322Z,99011.09
2023-09-01T14:40:46.342Z,99011.38
2023-09-01T14:43:13.126Z,99008.06
2023-09-01T14:45:39.999Z,99027.72
2023-09-01T14:48:07.009Z,99033.41
2023-09-01T14:50:33.672Z,99024.78
2023-09-01T14:53:00.139Z,99025.66
2023-09-01T14:55:26.987Z,99023.56
2023-09-01T14:57:53.557Z,99041.53
2023-09-01T15:00:20.614Z,99036.97
2023-09-01T15:02:47.227Z,99043.22
2023-09-01T15:05:13.911Z,99054.50
2023-09-01T15:07:41.333Z,99055.34
2023-09-01T15:10:08.858Z,99055.78
2023-09-01T15:12:35.547Z,99053.91
2023-09-01T15:15:02.210Z,99074.84
2023-09-01T15:17:28.794Z,99101.19
2023-09-01T15:19:55.265Z,99100.13
2023-09-01T15:22:21.850Z,99098.03
2023-09-01T15:24:48.325Z,99095.47
2023-09-01T15:27:14.944Z,99093.66
2023-09-01T15:29:43.898Z,99094.69
2023-09-01T15:32:10.763Z,99095.06
2023-09-01T15:34:38.231Z,99092.34
2023-09-01T15:37:04.864Z,99098.88
2023-09-01T15:39:33.840Z,99103.88
2023-09-01T15:42:01.042Z,99095.31
2023-09-01T15:44:27.449Z,99103.06
2023-09-01T15:46:53.999Z,99106.84
2023-09-01T15:49:20.398Z,99102.84
2023-09-01T15:51:46.832Z,99112.66
2023-09-01T15:54:14.674Z,99110.94
2023-09-01T15:56:41.290Z,99105.94
2023-09-01T15:59:08.007Z,99105.03
2023-09-01T16:01:34.734Z,99103.72
2023-09-01T16:04:02.685Z,99112.88
2023-09-01T16:06:33.466Z,99120.34
2023-09-01T16:09:00.276Z,99125.34
2023-09-01T16:11:26.894Z,99132.88
2023-09-01T16:13:54.837Z,99136.28
2023-09-01T16:16:21.721Z,99131.72
2023-09-01T16:18:48.369Z,99128.56
2023-09-01T16:21:14.945Z,99133.25
2023-09-01T16:23:41.446Z,99128.41
2023-09-01T16:26:07.999Z,99121.16
2023-09-01T16:28:34.594Z,99113.16
2023-09-01T16:31:01.217Z,99116.69
2023-09-01T16:33:27.690Z,99125.00
2023-09-01T16:35:56.505Z,99119.91
2023-09-01T16:38:24.255Z,99129.38
2023-09-01T16:40:52.491Z,99132.31
2023-09-01T16:43:23.245Z,99147.69
2023-09-01T16:45:51.140Z,99159.25
2023-09-01T16:48:17.829Z,99163.59
2023-09-01T16:50:45.736Z,99165.66
2023-09-01T16:53:13.521Z,99160.19
2023-09-01T16:55:41.306Z,99161.78
2023-09-01T16:58:08.691Z,99166.03
2023-09-01T17:00:36.009Z,99181.47
2023-09-01T17:03:02.665Z,99184.38
2023-09-01T17:05:29.341Z,99192.72
2023-09-01T17:07:55.751Z,99196.34
2023-09-01T17:10:22.712Z,99198.41
2023-09-01T17:12:49.195Z,99209.81
2023-09-01T17:15:17.081Z,99199.44
2023-09-01T17:17:44.513Z,99205.13
2023-09-01T17:20:15.039Z,99218.88
2023-09-01T17:22:41.449Z,99214.94
2023-09-01T17:25:08.508Z,99213.00
2023-09-01T17:27:35.117Z,99217.47
2023-09-01T17:30:01.769Z,99210.75
2023-09-01T17:32:28.612Z,99231.38
2023-09-01T17:34:55.824Z,99232.78
2023-09-01T17:37:22.742Z,99234.06
2023-09-01T17:39:49.339Z,99240.50
2023-09-01T17:42:15.836Z,99240.72
2023-09-01T17:44:42.582Z,99244.13
2023-09-01T17:47:09.293Z,99244.69
2023-09-01T17:49:35.916Z,99242.91
2023-09-01T17:52:02.510Z,99245.31
2023-09-01T17:54:29.040Z,99262.28
2023-09-01T17:56:56.627Z,99257.13
2023-09-01T17:59:23.193Z,99255.28
2023-09-01T18:01:52.955Z,99263.94
2023-09-01T18:04:19.976Z,99258.59
2023-09-01T18:06:47.350Z,99258.94
2023-09-01T18:09:14.743Z,99273.00
2023-09-01T18:11:41.507Z,99267.31
2023-09-01T18:14:08.919Z,99276.34
2023-09-01T18:16:36.613Z,99283.34
2023-09-01T18:19:04.377Z,99289.25
2023-09-01T18:21:34.040Z,99288.97
2023-09-01T18:24:06.253Z,99289.03
2023-09-01T18:26:32.975Z,99289.38
2023-09-01T18:29:00.242Z,99288.72
2023-09-01T18:31:27.175Z,99286.22
2023-09-01T18:33:53.841Z,99301.94
2023-09-01T18:36:22.279Z,99296.50
2023-09-01T18:38:49.279Z,99301.75
2023-09-01T18:41:15.804Z,99309.50
2023-09-01T18:43:42.357Z,99301.28
2023-09-01T18:46:10.164Z,99311.03
2023-09-01T18:48:36.610Z,99314.63
2023-09-01T18:51:07.145Z,99314.28
2023-09-01T18:53:35.015Z,99318.16
2023-09-01T18:56:01.908Z,99313.09
2023-09-01T18:58:28.608Z,99318.50
2023-09-01T19:00:55.214Z,99326.56
2023-09-01T19:03:26.076Z,99339.91
2023-09-01T19:05:56.566Z,99337.53
2023-09-01T19:08:24.865Z,99352.22
2023-09-01T19:10:54.042Z,99346.97
2023-09-01T19:13:21.696Z,99347.13
2023-09-01T19:15:54.440Z,99347.97
2023-09-01T19:18:39.815Z,99361.81
2023-09-01T19:21:06.428Z,99363.47
2023-09-01T19:23:40.252Z,99360.25
2023-09-01T19:26:21.179Z,99357.56
2023-09-01T19:28:48.978Z,99366.66
2023-09-01T19:31:16.891Z,99369.00
2023-09-01T19:33:51.653Z,99372.72
2023-09-01T19:36:23.046Z,99383.47
2023-09-01T19:38:51.853Z,99385.56
2023-09-01T19:41:18.349Z,99391.13
2023-09-01T19:43:45.057Z,99397.16
2023-09-01T19:46:11.497Z,99396.66
2023-09-01T19:48:39.840Z,99398.50
2023-09-01T19:51:08.377Z,99404.59
2023-09-01T19:53:34.952Z,99405.75
2023-09-01T19:56:11.029Z,99410.31
2023-09-01T19:58:43.442Z,99422.25
2023-09-01T20:01:17.344Z,99416.16
2023-09-01T20:03:44.368Z,99417.34
2023-09-01T20:06:13.099Z,99417.16
2023-09-01T20:08:39.658Z,99420.31
2023-09-01T20:11:08.273Z,99418.28
2023-09-01T20:13:37.220Z,99419.44
2023-09-01T20:16:04.312Z,99428.56
2023-09-01T20:18:30.935Z,99427.81
2023-09-01T20:20:57.600Z,99422.88
2023-09-01T20:23:24.021Z,99422.97
2023-09-01T20:25:50.761Z,99418.72
2023-09-01T20:28:17.481Z,99421.50
2023-09-01T20:30:45.302Z,99420.44
2023-09-01T20:33:11.753Z,99431.38
2023-09-01T20:35:38.333Z,99423.44
2023-09-01T20:38:04.743Z,99433.06
2023-09-01T20:40:31.289Z,99432.75
2023-09-01T20:42:57.769Z,99440.66
2023-09-01T20:45:24.451Z,99433.59
2023-09-01T20:47:51.099Z,99436.97
2023-09-01T20:50:19.888Z,99440.66
2023-09-01T20:52:48.421Z,99442.06
2023-09-01T20:55:17.503Z,99442.59
2023-09-01T20:57:50.083Z,99444.06
2023-09-01T21:00:19.179Z,99441.53
2023-09-01T21:02:48.053Z,99448.00
2023-09-01T21:05:18.669Z,99451.94
2023-09-01T21:07:50.279Z,99454.97
2023-09-01T21:10:18.663Z,99457.72
2023-09-01T21:12:45.319Z,99460.88
2023-09-01T21:15:13.117Z,99455.50
2023-09-01T21:17:39.726Z,99461.91
2023-09-01T21:20:07.137Z,99473.06
2023-09-01T21:22:33.588Z,99468.50
2023-09-01T21:25:00.368Z,99464.50
2023-09-01T21:27:26.890Z,99471.28
2023-09-01T21:29:56.330Z,99465.03
2023-09-01T21:32:23.047Z,99469.56
2023-09-01T21:34:50.711Z,99481.19
2023-09-01T21:37:18.356Z,99484.03
2023-09-01T21:39:45.907Z,99482.50
2023-09-01T21:42:12.335Z,99476.03
2023-09-01T21:44:38.838Z,99483.59
2023-09-01T21:47:05.383Z,99485.88
2023-09-01T21:49:32.023Z,99484.78
2023-09-01T21:51:58.545Z,99486.78
2023-09-01T21:54:24.957Z,99490.50
2023-09-01T21:56:51.413Z,99493.03
2023-09-01T21:59:17.957Z,99497.25
2023-09-01T22:01:44.471Z,99504.34
2023-09-01T22:04:10.952Z,99506.88
2023-09-01T22:06:37.547Z,99510.28
2023-09-01T22:09:04.029Z,99504.00
2023-09-01T22:11:30.518Z,99513.25
2023-09-01T22:13:56.919Z,99519.63
2023-09-01T22:16:27.162Z,99519.97
2023-09-01T22:18:53.695Z,99522.03
2023-09-01T22:21:22.368Z,99522.78
2023-09-01T22:23:49.768Z,99526.47
2023-09-01T22:26:16.863Z,99516.72
2023-09-01T22:28:43.283Z,99521.25
2023-09-01T22:31:09.885Z,99521.09
2023-09-01T22:33:36.288Z,99523.09
2023-09-01T22:36:02.986Z,99511.34
2023-09-01T22:38:30.474Z,99519.63
2023-09-01T22:41:01.036Z,99519.34
2023-09-01T22:43:28.243Z,99522.56
2023-09-01T22:45:56.638Z,99518.72
2023-09-01T22:48:23.537Z,99518.72
2023-09-01T22:50:50.634Z,99519.03
2023-09-01T22:53:17.433Z,99528.09
2023-09-01T22:55:45.901Z,99522.84
2023-09-01T22:58:12.493Z,99528.44
2023-09-01T23:00:40.857Z,99526.41
2023-09-01T23:03:08.959Z,99524.41
2023-09-01T23:05:36.342Z,99516.19
2023-09-01T23:08:03.148Z,99524.41
2023-09-01T23:10:29.785Z,99522.72
2023-09-01T23:12:56.250Z,99516.63
2023-09-01T23:15:24.671Z,99519.47
2023-09-01T23:17:53.821Z,99527.56
2023-09-01T23:20:20.937Z,99529.03
2023-09-01T23:22:47.358Z,99527.63
2023-09-01T23:25:13.950Z,99536.84
2023-09-01T23:27:41.024Z,99537.28
2023-09-01T23:30:08.392Z,99539.00
2023-09-01T23:32:35.390Z,99534.06
2023-09-01T23:35:02.127Z,99539.28
2023-09-01T23:37:28.633Z,99525.97
2023-09-01T23:39:55.218Z,99527.28
2023-09-01T23:42:23.236Z,99530.53
2023-09-01T23:44:50.425Z,99529.41
2023-09-01T23:47:17.237Z,99522.59
2023-09-01T23:49:43.772Z,99529.84
2023-09-01T23:52:10.334Z,99535.22
2023-09-01T23:54:36.799Z,99533.22
2023-09-01T23:57:03.548Z,99530.66
2023-09-01T23:59:30.002Z,99529.84
